createdAt,value
2023-05-06T00:06:30.447Z,100980.19
2023-05-06T00:16:34.133Z,100973.06
2023-05-06T00:26:37.738Z,100972.02
2023-05-06T00:36:43.170Z,100966.84
2023-05-06T00:46:47.397Z,100972.52
2023-05-06T00:56:51.190Z,100967.63
2023-05-06T01:07:05.812Z,100974.13
2023-05-06T01:17:12.921Z,100981.20
2023-05-06T01:27:17.352Z,100989.19
2023-05-06T01:37:32.749Z,100992.55
2023-05-06T01:47:37.875Z,100993.66
2023-05-06T01:57:42.321Z,100993.24
2023-05-06T02:07:45.916Z,100989.63
2023-05-06T02:17:50.215Z,100999.84
2023-05-06T02:27:53.948Z,101001.70
2023-05-06T02:37:59.544Z,100999.92
2023-05-06T02:48:04.260Z,100996.10
2023-05-06T02:58:07.956Z,101002.44
2023-05-06T03:08:11.702Z,100998.86
2023-05-06T03:18:16.118Z,100994.48
2023-05-06T03:28:20.160Z,100990.17
2023-05-06T03:38:25.121Z,100989.77
2023-05-06T03:48:33.158Z,100990.95
2023-05-06T03:58:37.021Z,100989.48
2023-05-06T04:08:41.200Z,100985.58
2023-05-06T04:18:46.345Z,100987.83
2023-05-06T04:28:52.009Z,100979.43
2023-05-06T04:38:55.954Z,100980.39
2023-05-06T04:49:00.005Z,100978.82
2023-05-06T04:59:03.776Z,100978.48
2023-05-06T05:09:09.231Z,100973.43
2023-05-06T05:19:14.177Z,100953.02
2023-05-06T05:29:18.698Z,100944.27
2023-05-06T05:39:24.360Z,100942.88
2023-05-06T05:49:28.228Z,100942.39
2023-05-06T05:59:33.084Z,100937.10
2023-05-06T06:09:39.416Z,100936.45
2023-05-06T06:19:46.010Z,100934.03
2023-05-06T06:29:50.678Z,100931.05
2023-05-06T06:39:54.349Z,100927.91
2023-05-06T06:49:57.950Z,100919.55
2023-05-06T07:00:01.672Z,100914.52
2023-05-06T07:10:08.180Z,100911.23
2023-05-06T07:20:12.701Z,100908.02
2023-05-06T07:30:17.118Z,100898.30
2023-05-06T07:40:20.900Z,100896.14
2023-05-06T07:50:24.712Z,100892.92
2023-05-06T08:00:29.700Z,100899.30
2023-05-06T08:10:33.311Z,100893.38
2023-05-06T08:20:36.950Z,100891.95
2023-05-06T08:30:42.186Z,100894.26
2023-05-06T08:40:49.138Z,100896.14
2023-05-06T08:50:54.907Z,100891.02
2023-05-06T09:00:59.997Z,100884.73
2023-05-06T09:11:21.515Z,100866.75
2023-05-06T09:21:39.670Z,100853.80
2023-05-06T09:31:46.797Z,100850.54
2023-05-06T09:41:51.232Z,100839.09
2023-05-06T09:51:57.849Z,100822.55
2023-05-06T10:02:03.013Z,100815.27
2023-05-06T10:12:10.356Z,100813.71
2023-05-06T10:22:26.496Z,100815.98
2023-05-06T10:32:33.220Z,100806.42
2023-05-06T10:42:36.961Z,100798.44
2023-05-06T10:52:48.207Z,100790.34
2023-05-06T11:02:57.262Z,100773.83
2023-05-06T11:13:19.275Z,100771.83
2023-05-06T11:23:22.982Z,100767.52
2023-05-06T11:33:32.554Z,100765.33
2023-05-06T11:43:36.283Z,100758.67
2023-05-06T11:53:39.842Z,100756.56
2023-05-06T12:03:43.573Z,100759.67
2023-05-06T12:13:47.396Z,100757.66
2023-05-06T12:23:56.614Z,100753.98
2023-05-06T12:34:01.280Z,100750.34
2023-05-06T12:44:37.282Z,100744.92
2023-05-06T12:54:41.114Z,100727.39
2023-05-06T13:04:46.986Z,100725.20
2023-05-06T13:14:50.902Z,100723.94
2023-05-06T13:24:54.746Z,100715.78
2023-05-06T13:34:58.350Z,100717.73
2023-05-06T13:45:01.939Z,100720.09
2023-05-06T13:55:06.498Z,100715.05
2023-05-06T14:05:11.048Z,100706.70
2023-05-06T14:15:15.427Z,100702.90
2023-05-06T14:25:19.064Z,100696.91
2023-05-06T14:35:23.042Z,100688.91
2023-05-06T14:45:26.646Z,100688.48
2023-05-06T14:55:30.313Z,100688.90
2023-05-06T15:05:33.967Z,100686.36
2023-05-06T15:15:37.596Z,100683.17
2023-05-06T15:25:41.456Z,100676.84
2023-05-06T15:35:45.365Z,100673.16
2023-05-06T15:45:48.959Z,100677.70
2023-05-06T15:55:57.258Z,100680.75
2023-05-06T16:06:05.793Z,100672.09
2023-05-06T16:16:09.492Z,100669.94
2023-05-06T16:26:16.884Z,100675.73
2023-05-06T16:36:20.566Z,100686.02
2023-05-06T16:46:24.839Z,100690.63
2023-05-06T16:56:43.937Z,100689.77
2023-05-06T17:06:55.314Z,100699.70
2023-05-06T17:17:04.270Z,100702.05
2023-05-06T17:27:08.837Z,100702.91
2023-05-06T17:37:12.510Z,100704.07
2023-05-06T17:47:17.664Z,100707.94
2023-05-06T17:57:23.312Z,100708.13
2023-05-06T18:07:28.269Z,100718.00
2023-05-06T18:17:31.902Z,100723.84
2023-05-06T18:27:37.179Z,100735.27
2023-05-06T18:37:40.952Z,100733.30
2023-05-06T18:47:44.652Z,100736.93
2023-05-06T18:57:49.880Z,100736.98
2023-05-06T19:07:53.606Z,100738.12
2023-05-06T19:17:57.268Z,100745.79
2023-05-06T19:28:00.916Z,100750.64
2023-05-06T19:38:06.378Z,100752.98
2023-05-06T19:48:09.936Z,100742.73
2023-05-06T19:58:14.255Z,100742.94
2023-05-06T20:08:19.100Z,100749.86
2023-05-06T20:18:23.118Z,100755.88
2023-05-06T20:28:27.053Z,100758.22
2023-05-06T20:38:31.089Z,100754.34
2023-05-06T20:48:34.898Z,100759.42
2023-05-06T20:58:38.658Z,100762.65
2023-05-06T21:08:46.123Z,100764.15
2023-05-06T21:18:50.261Z,100766.02
2023-05-06T21:28:58.876Z,100769.45
2023-05-06T21:39:08.667Z,100774.39
2023-05-06T21:49:12.417Z,100778.89
2023-05-06T21:59:16.124Z,100779.85
2023-05-06T22:09:23.653Z,100784.54
2023-05-06T22:19:29.149Z,100789.25
2023-05-06T22:29:35.304Z,100795.20
2023-05-06T22:39:41.305Z,100787.14
2023-05-06T22:49:44.963Z,100790.39
2023-05-06T22:59:50.739Z,100793.27
2023-05-06T23:09:54.810Z,100795.20
2023-05-06T23:19:59.518Z,100801.77
2023-05-06T23:30:05.260Z,100800.90
2023-05-06T23:40:09.271Z,100807.39
2023-05-06T23:50:13.291Z,100813.02
